KVLD/VLD METAR and TAF weather

Enter ICAO airport designator
Station Type Date Time Source
KVLD METAR 2021/01/20 22:53 UTC NOAA

KVLD 202253Z 00000KT 10SM CLR 17/09 A3021 RMK AO2 SLP236 T01720094


Station Type Date Time Source
KVLD Decoded METAR 2021/01/20 22:53 UTC NOAA

VALDOSTA REGIONAL AIRPORT, GA, United States (KVLD) 30-47N 083-16W
Jan 20, 2021 - 05:53 PM EST / 2021.01.20 2253 UTC
Wind: Calm:0
Visibility: 10 mile(s):0
Sky conditions: clear
Temperature: 63.0 F (17.2 C)
Dew Point: 48.9 F (9.4 C)
Relative Humidity: 60%
Pressure (altimeter): 30.21 in. Hg (1023 hPa)
ob: KVLD 202253Z 00000KT 10SM CLR 17/09 A3021 RMK AO2 SLP236 T01720094
cycle: 23

Station Type Date Time Source
KVLD TAF 2021/01/20 18:36 UTC NOAA

TAF KVLD 201720Z 2018/2118 32005KT P6SM SCT200

Example: see airport list